Time;durP1;ratioP1;P1;durP2;ratioP2;P2;SDS_P1;SDS_P2;PMS_P1;PMS_P2;Temp;Humidity;BMP_temperature;BMP_pressure;BME280_temperature;BME280_humidity;BME280_pressure;Samples;Min_cycle;Max_cycle;Signal;HPM_P1;HPM_P2
2022/12/07 00:01:14;;;;;;;14.30;8.02;;;2.80;99.90;;;;;;5009165;28;20026;-78
2022/12/07 00:03:43;;;;;;;19.65;11.02;;;2.80;99.90;;;;;;5002704;28;20052;-76
2022/12/07 00:06:13;;;;;;;23.27;13.88;;;2.80;99.90;;;;;;5005765;28;20471;-77
2022/12/07 00:08:40;;;;;;;17.25;11.30;;;2.80;99.90;;;;;;4969595;28;20395;-77
2022/12/07 00:11:10;;;;;;;13.82;8.48;;;2.80;99.90;;;;;;5011013;28;20037;-76
2022/12/07 00:13:37;;;;;;;14.52;7.70;;;2.80;99.90;;;;;;5008821;28;20395;-76
2022/12/07 00:16:09;;;;;;;12.60;7.75;;;2.80;99.90;;;;;;4999823;28;20049;-77
2022/12/07 00:18:36;;;;;;;14.52;7.25;;;2.80;99.90;;;;;;5008217;28;20391;-77
2022/12/07 00:21:11;;;;;;;11.95;7.13;;;2.80;99.90;;;;;;4993897;28;20049;-77
2022/12/07 00:23:38;;;;;;;12.70;7.72;;;2.90;99.90;;;;;;5008166;28;20049;-76
2022/12/07 00:26:10;;;;;;;15.13;9.10;;;2.90;99.90;;;;;;5014410;28;20038;-76
2022/12/07 00:28:37;;;;;;;14.27;8.65;;;2.90;99.90;;;;;;4997133;28;20475;-77
2022/12/07 00:31:09;;;;;;;13.93;8.13;;;2.90;99.90;;;;;;5008346;28;20030;-77
2022/12/07 00:33:35;;;;;;;13.55;7.28;;;2.90;99.90;;;;;;4980605;28;20042;-77
2022/12/07 00:36:05;;;;;;;13.63;7.72;;;2.80;99.90;;;;;;5009618;28;20026;-77
2022/12/07 00:38:33;;;;;;;12.68;7.13;;;2.80;99.90;;;;;;5012158;28;20034;-77
2022/12/07 00:41:01;;;;;;;10.80;7.00;;;2.80;99.90;;;;;;5007646;28;20057;-77
2022/12/07 00:43:28;;;;;;;12.10;6.47;;;2.80;99.90;;;;;;5010056;28;20102;-77
2022/12/07 00:45:54;;;;;;;13.38;7.05;;;2.80;99.90;;;;;;5012683;28;20029;-76
2022/12/07 00:48:22;;;;;;;12.68;5.85;;;2.80;99.90;;;;;;5010392;28;20041;-76
2022/12/07 00:50:49;;;;;;;9.98;6.03;;;2.70;99.90;;;;;;4994078;28;20379;-75
2022/12/07 00:53:16;;;;;;;10.65;5.47;;;2.70;99.90;;;;;;4998988;28;20034;-76
2022/12/07 00:55:43;;;;;;;11.23;5.43;;;2.70;99.90;;;;;;5004033;28;20037;-77
2022/12/07 00:58:09;;;;;;;11.68;6.70;;;2.70;99.90;;;;;;5011934;28;20403;-76
2022/12/07 01:00:37;;;;;;;9.02;5.65;;;2.70;99.90;;;;;;5013198;28;20479;-76
2022/12/07 01:03:04;;;;;;;11.32;6.05;;;2.70;99.90;;;;;;5009452;28;20053;-76
2022/12/07 01:05:31;;;;;;;11.10;6.53;;;2.80;99.90;;;;;;5005495;28;20034;-76
2022/12/07 01:07:57;;;;;;;12.50;5.78;;;2.80;99.90;;;;;;5009133;28;20030;-76
2022/12/07 01:10:23;;;;;;;13.55;7.80;;;2.80;99.90;;;;;;5013766;28;20394;-76
2022/12/07 01:12:49;;;;;;;14.10;7.20;;;2.80;99.90;;;;;;5006339;28;20037;-76
2022/12/07 01:15:16;;;;;;;12.07;6.45;;;2.80;99.90;;;;;;5011536;28;20041;-76
2022/12/07 01:17:42;;;;;;;12.25;6.38;;;2.80;99.90;;;;;;5014363;28;20041;-75
2022/12/07 01:20:08;;;;;;;14.90;7.00;;;2.80;99.90;;;;;;5013651;28;20026;-78
2022/12/07 01:22:39;;;;;;;12.68;7.35;;;2.80;99.90;;;;;;5011368;28;20041;-79
2022/12/07 01:25:06;;;;;;;13.03;6.93;;;2.80;99.90;;;;;;5005478;28;20031;-78
2022/12/07 01:27:33;;;;;;;14.57;8.73;;;2.80;99.90;;;;;;5008387;28;20746;-78
2022/12/07 01:30:00;;;;;;;17.70;8.80;;;2.80;99.90;;;;;;5007788;28;20038;-78
2022/12/07 01:32:26;;;;;;;14.80;8.20;;;2.80;99.90;;;;;;5001987;28;20034;-78
2022/12/07 01:34:53;;;;;;;13.70;8.77;;;3.00;99.90;;;;;;5006360;28;20023;-78
2022/12/07 01:37:19;;;;;;;14.15;7.60;;;2.90;99.90;;;;;;5004425;28;20042;-78
2022/12/07 01:39:49;;;;;;;12.07;6.35;;;3.00;99.90;;;;;;5012950;28;20046;-78
2022/12/07 01:42:15;;;;;;;11.45;6.68;;;2.90;99.90;;;;;;5006124;28;20038;-78
2022/12/07 01:45:18;;;;;;;13.80;6.57;;;2.90;99.90;;;;;;5011351;28;20034;-78
2022/12/07 01:47:56;;;;;;;13.07;7.72;;;2.80;99.90;;;;;;5011241;28;20383;-78
2022/12/07 01:50:25;;;;;;;12.00;7.55;;;2.80;99.90;;;;;;5011161;28;20034;-78
2022/12/07 01:52:53;;;;;;;14.38;7.43;;;2.80;99.90;;;;;;5009584;28;20040;-78
2022/12/07 01:55:20;;;;;;;13.85;7.72;;;2.80;99.90;;;;;;5005139;28;20038;-78
2022/12/07 01:57:50;;;;;;;10.80;6.10;;;2.80;99.90;;;;;;5011857;28;20042;-78
2022/12/07 02:00:17;;;;;;;11.67;6.57;;;2.80;99.90;;;;;;5010197;28;20025;-78
2022/12/07 02:02:59;;;;;;;11.15;6.28;;;2.70;99.90;;;;;;4990698;28;20073;-78
2022/12/07 02:05:26;;;;;;;15.00;6.80;;;2.70;99.90;;;;;;5010004;28;20033;-78
2022/12/07 02:07:55;;;;;;;12.85;7.47;;;2.70;99.90;;;;;;5010888;28;20488;-76
2022/12/07 02:10:23;;;;;;;11.73;5.95;;;2.70;99.90;;;;;;5009261;28;20383;-78
2022/12/07 02:12:54;;;;;;;11.60;7.43;;;2.70;99.90;;;;;;5006917;28;20026;-78
2022/12/07 02:15:22;;;;;;;18.60;7.63;;;2.70;99.90;;;;;;5007996;28;20038;-78
2022/12/07 02:18:01;;;;;;;16.98;7.78;;;2.70;99.90;;;;;;4995197;28;20051;-78
2022/12/07 02:20:54;;;;;;;12.48;7.13;;;2.70;99.90;;;;;;5009294;28;20379;-78
2022/12/07 02:24:03;;;;;;;14.50;7.90;;;2.60;99.90;;;;;;4999641;28;20053;-78
2022/12/07 02:26:35;;;;;;;15.40;8.85;;;2.50;99.90;;;;;;4958184;28;20042;-78
2022/12/07 02:29:17;;;;;;;17.10;9.18;;;2.50;99.90;;;;;;5007993;28;20033;-78
2022/12/07 02:31:59;;;;;;;17.05;9.50;;;2.60;99.90;;;;;;5011544;28;20038;-78
2022/12/07 02:34:50;;;;;;;13.93;7.53;;;2.60;99.90;;;;;;5007866;28;20045;-78
2022/12/07 02:37:48;;;;;;;14.80;7.22;;;2.60;99.90;;;;;;4993734;28;20044;-78
2022/12/07 02:40:20;;;;;;;11.10;6.80;;;2.50;99.90;;;;;;5002865;28;20036;-76
2022/12/07 02:42:50;;;;;;;16.17;8.38;;;2.40;99.90;;;;;;5002923;28;20387;-77
2022/12/07 02:45:22;;;;;;;13.70;8.07;;;2.40;99.90;;;;;;5011810;28;20026;-77
2022/12/07 02:47:52;;;;;;;16.35;8.23;;;2.40;99.90;;;;;;5010974;28;20033;-77
2022/12/07 02:50:20;;;;;;;17.35;8.85;;;2.40;99.90;;;;;;5008934;28;20037;-77
2022/12/07 02:52:46;;;;;;;16.02;8.85;;;2.40;99.90;;;;;;5008666;28;20455;-77
2022/12/07 02:55:17;;;;;;;17.42;8.70;;;2.50;99.90;;;;;;5003071;28;20042;-76
2022/12/07 02:58:18;;;;;;;19.40;10.25;;;2.50;99.90;;;;;;5009753;28;20041;-76
2022/12/07 03:00:54;;;;;;;16.13;8.32;;;2.50;99.90;;;;;;5007466;28;20364;-76
2022/12/07 03:03:22;;;;;;;17.25;8.88;;;2.60;99.90;;;;;;5003601;28;20056;-77
2022/12/07 03:06:01;;;;;;;18.50;8.82;;;2.70;99.90;;;;;;4992706;28;20559;-77
2022/12/07 03:08:27;;;;;;;16.52;8.85;;;2.70;99.90;;;;;;5007213;28;20038;-77
2022/12/07 03:11:04;;;;;;;14.60;8.77;;;2.80;99.90;;;;;;5010776;28;20042;-77
2022/12/07 03:13:52;;;;;;;17.67;8.35;;;2.80;99.90;;;;;;5004785;28;20033;-76
2022/12/07 03:16:25;;;;;;;18.83;8.35;;;2.90;99.90;;;;;;5000476;28;20026;-76
2022/12/07 03:18:56;;;;;;;18.60;8.07;;;2.90;95.80;;;;;;5010561;28;20052;-77
2022/12/07 03:21:40;;;;;;;16.83;8.25;;;2.90;91.30;;;;;;5009306;28;20030;-77
2022/12/07 03:24:11;;;;;;;12.07;6.60;;;3.00;85.00;;;;;;5000074;28;20456;-77
2022/12/07 03:27:01;;;;;;;13.57;7.15;;;3.00;76.60;;;;;;5003262;28;20033;-77
2022/12/07 03:29:51;;;;;;;13.73;7.55;;;3.10;71.10;;;;;;5002737;28;20038;-78
2022/12/07 03:32:35;;;;;;;13.32;7.93;;;3.10;67.60;;;;;;4994127;28;20046;-77
2022/12/07 03:35:06;;;;;;;14.77;7.35;;;3.10;64.10;;;;;;5012949;28;20042;-77
2022/12/07 03:38:03;;;;;;;14.93;7.72;;;3.10;58.00;;;;;;5004910;28;20033;-77
2022/12/07 03:40:45;;;;;;;11.15;6.22;;;3.10;55.70;;;;;;4993202;28;20065;-77
2022/12/07 03:43:11;;;;;;;11.68;6.60;;;3.10;51.90;;;;;;4982530;28;20057;-77
2022/12/07 03:45:46;;;;;;;12.13;6.93;;;3.20;50.70;;;;;;5005856;28;20049;-77
2022/12/07 03:48:28;;;;;;;14.25;7.53;;;3.20;44.50;;;;;;5004652;28;20034;-77
2022/12/07 03:50:59;;;;;;;;;;;3.30;40.60;;;;;;5002158;28;20030;-77
2022/12/07 03:53:34;;;;;;;11.20;6.72;;;3.30;36.40;;;;;;5007678;28;19933;-77
2022/12/07 03:56:01;;;;;;;12.32;6.63;;;3.30;32.00;;;;;;5012718;28;20367;-77
2022/12/07 03:58:29;;;;;;;10.52;6.03;;;3.30;28.30;;;;;;5011509;28;20041;-77
2022/12/07 04:00:56;;;;;;;11.20;6.55;;;3.40;26.90;;;;;;5005971;28;20380;-77
2022/12/07 04:03:22;;;;;;;10.35;5.78;;;3.30;25.90;;;;;;5008189;28;20051;-76
2022/12/07 04:05:49;;;;;;;10.75;6.30;;;3.30;25.20;;;;;;5011857;28;20027;-77
2022/12/07 04:08:15;;;;;;;12.45;6.32;;;3.40;24.60;;;;;;5012172;28;20029;-76
2022/12/07 04:10:41;;;;;;;13.00;6.53;;;3.40;23.20;;;;;;5002979;28;20494;-77
2022/12/07 04:13:07;;;;;;;12.02;5.97;;;3.30;22.30;;;;;;5012500;28;20214;-77
2022/12/07 04:15:33;;;;;;;11.07;6.55;;;3.40;21.00;;;;;;5014933;28;20033;-77
2022/12/07 04:18:00;;;;;;;12.80;6.25;;;3.40;19.40;;;;;;5009133;28;20042;-76
2022/12/07 04:20:26;;;;;;;10.43;5.72;;;3.40;18.60;;;;;;4991365;28;20053;-76
2022/12/07 04:22:52;;;;;;;12.27;6.57;;;3.50;17.00;;;;;;5012538;28;20029;-76
2022/12/07 04:25:18;;;;;;;11.38;6.05;;;3.50;14.60;;;;;;4991430;28;20046;-77
2022/12/07 04:27:44;;;;;;;10.38;5.93;;;3.60;11.80;;;;;;5012726;28;20041;-77
2022/12/07 04:30:11;;;;;;;10.02;5.75;;;3.60;9.00;;;;;;5010229;28;20030;-77
2022/12/07 04:32:37;;;;;;;10.25;5.75;;;3.60;7.90;;;;;;5011020;28;20030;-77
2022/12/07 04:35:04;;;;;;;8.15;4.47;;;3.70;8.50;;;;;;4993096;28;20038;-77
2022/12/07 04:37:30;;;;;;;10.20;5.38;;;3.70;11.00;;;;;;5012009;28;20041;-78
2022/12/07 04:39:56;;;;;;;10.00;5.45;;;3.70;10.20;;;;;;5012280;28;20038;-77
2022/12/07 04:42:22;;;;;;;10.18;6.03;;;3.70;12.00;;;;;;4993477;28;20049;-77
2022/12/07 04:44:48;;;;;;;10.13;5.80;;;3.70;15.70;;;;;;5018647;28;20030;-77
2022/12/07 04:47:14;;;;;;;11.65;6.07;;;3.60;19.90;;;;;;5004454;28;20383;-78
2022/12/07 04:49:40;;;;;;;8.65;5.85;;;3.60;23.50;;;;;;5008981;28;20383;-78
2022/12/07 04:52:06;;;;;;;14.18;6.90;;;3.50;27.20;;;;;;5009899;28;20022;-78
2022/12/07 04:54:33;;;;;;;13.30;6.93;;;3.50;33.30;;;;;;4990177;28;20044;-78
2022/12/07 04:56:59;;;;;;;12.27;6.35;;;3.50;39.40;;;;;;5000856;28;20038;-78
2022/12/07 04:59:25;;;;;;;13.65;6.65;;;3.50;41.50;;;;;;4995072;28;20490;-77
2022/12/07 05:01:51;;;;;;;12.50;6.72;;;3.50;43.80;;;;;;5007744;28;20026;-77
2022/12/07 05:04:17;;;;;;;14.80;8.20;;;3.50;47.10;;;;;;5006398;28;20057;-77
2022/12/07 05:06:44;;;;;;;13.27;6.80;;;3.40;50.20;;;;;;5009727;28;20042;-77
2022/12/07 05:09:10;;;;;;;13.80;6.53;;;3.40;50.70;;;;;;5017649;28;20034;-78
2022/12/07 05:11:39;;;;;;;12.13;6.60;;;3.40;52.90;;;;;;5018290;28;20037;-78
2022/12/07 05:14:17;;;;;;;10.02;6.15;;;3.50;48.60;;;;;;5019895;28;20046;-78
2022/12/07 05:16:45;;;;;;;12.70;6.97;;;3.50;47.90;;;;;;5015191;28;20038;-78
2022/12/07 05:19:12;;;;;;;11.50;6.35;;;3.50;51.60;;;;;;5014970;28;20049;-77
2022/12/07 05:21:39;;;;;;;12.60;5.80;;;3.50;50.20;;;;;;5014068;28;20037;-77
2022/12/07 05:24:07;;;;;;;10.10;5.70;;;3.50;52.30;;;;;;5014602;28;20025;-78
2022/12/07 05:26:34;;;;;;;10.43;6.47;;;3.50;48.10;;;;;;5014197;28;20481;-77
2022/12/07 05:29:00;;;;;;;10.32;5.65;;;3.50;46.50;;;;;;5014189;28;20041;-77
2022/12/07 05:31:27;;;;;;;9.35;6.13;;;3.50;48.80;;;;;;5013658;28;20030;-77
2022/12/07 05:33:53;;;;;;;14.35;7.07;;;3.50;49.30;;;;;;5014331;28;20386;-77
2022/12/07 05:36:20;;;;;;;11.57;6.30;;;3.50;52.40;;;;;;5019054;28;20038;-77
2022/12/07 05:38:46;;;;;;;12.73;6.60;;;3.40;55.00;;;;;;5015581;28;20402;-77
2022/12/07 05:44:03;;;;;;;12.32;7.28;;;3.40;54.00;;;;;;5014664;28;20041;-77
2022/12/07 05:46:29;;;;;;;10.52;6.47;;;3.40;52.80;;;;;;5013135;28;20057;-77
2022/12/07 05:48:55;;;;;;;13.73;6.80;;;3.40;49.60;;;;;;5014234;28;20033;-77
2022/12/07 05:51:21;;;;;;;14.35;8.45;;;3.40;48.00;;;;;;5013318;28;20037;-76
2022/12/07 05:53:47;;;;;;;13.75;7.38;;;3.50;59.80;;;;;;5013825;28;20332;-77
2022/12/07 05:56:14;;;;;;;18.05;7.57;;;3.40;68.90;;;;;;5013888;28;20041;-77
2022/12/07 06:01:25;;;;;;;11.70;7.78;;;3.20;90.30;;;;;;5013170;28;20055;-77
2022/12/07 06:03:51;;;;;;;13.43;7.72;;;3.20;95.40;;;;;;5013930;28;20070;-78
2022/12/07 06:06:17;;;;;;;11.27;6.63;;;3.20;97.20;;;;;;5012955;28;20041;-76
2022/12/07 06:08:43;;;;;;;13.52;7.93;;;3.10;97.80;;;;;;5014218;28;20149;-78
2022/12/07 06:13:54;;;;;;;14.02;7.80;;;3.20;98.70;;;;;;4992220;28;20042;-75
2022/12/07 06:16:20;;;;;;;19.23;8.20;;;3.20;97.00;;;;;;5007137;28;20490;-76
2022/12/07 06:18:46;;;;;;;15.85;8.70;;;3.20;97.10;;;;;;5006219;28;20049;-76
2022/12/07 06:21:12;;;;;;;15.43;8.32;;;3.20;98.60;;;;;;5009037;28;20032;-76
2022/12/07 06:23:38;;;;;;;13.15;7.28;;;3.20;99.60;;;;;;5001410;28;20026;-76
2022/12/07 06:26:04;;;;;;;15.32;8.10;;;3.20;99.90;;;;;;5002376;28;20030;-76
2022/12/07 06:28:31;;;;;;;13.50;7.70;;;3.20;99.90;;;;;;5002799;28;20473;-76
2022/12/07 06:30:59;;;;;;;14.38;7.97;;;3.20;99.90;;;;;;5002862;28;20387;-76
2022/12/07 06:33:25;;;;;;;15.93;7.90;;;3.20;99.90;;;;;;5002132;28;20475;-76
2022/12/07 06:35:51;;;;;;;14.50;7.32;;;3.10;99.90;;;;;;5001659;28;20027;-76
2022/12/07 06:38:18;;;;;;;15.20;7.55;;;3.20;99.90;;;;;;5001046;28;20034;-76
2022/12/07 06:40:44;;;;;;;15.57;9.85;;;3.20;99.90;;;;;;5001524;28;20089;-76
2022/12/07 06:43:10;;;;;;;14.90;8.02;;;3.20;99.90;;;;;;5001308;28;20026;-77
2022/12/07 06:45:36;;;;;;;17.75;10.00;;;3.20;99.90;;;;;;5002067;28;20033;-76
2022/12/07 06:48:02;;;;;;;17.42;9.60;;;3.10;99.90;;;;;;4998573;28;20030;-76
2022/12/07 06:50:28;;;;;;;14.48;7.68;;;3.10;99.90;;;;;;4984186;28;20063;-76
2022/12/07 06:52:54;;;;;;;15.70;9.02;;;3.10;99.90;;;;;;5002839;28;20379;-76
2022/12/07 06:55:21;;;;;;;22.90;12.82;;;3.20;99.90;;;;;;5000581;28;20023;-76
2022/12/07 06:57:47;;;;;;;22.85;12.32;;;3.20;99.90;;;;;;4999379;28;20037;-76
2022/12/07 07:00:13;;;;;;;45.92;21.42;;;3.20;99.90;;;;;;4992585;28;20046;-76
2022/12/07 07:02:40;;;;;;;72.00;29.02;;;3.20;99.90;;;;;;4974493;28;20042;-76
2022/12/07 07:05:06;;;;;;;33.20;15.05;;;3.20;99.90;;;;;;4992720;28;20494;-77
2022/12/07 07:07:32;;;;;;;20.38;11.77;;;3.20;99.90;;;;;;4992600;28;20038;-76
2022/12/07 07:09:58;;;;;;;18.02;9.70;;;3.20;99.90;;;;;;4992810;28;20376;-76
2022/12/07 07:12:24;;;;;;;67.75;30.92;;;3.30;99.90;;;;;;4991809;28;20428;-76
2022/12/07 07:14:51;;;;;;;55.35;27.08;;;3.30;99.90;;;;;;4992799;28;20040;-76
2022/12/07 07:17:17;;;;;;;63.53;30.98;;;3.20;99.90;;;;;;4992473;28;20037;-76
2022/12/07 07:19:43;;;;;;;38.03;19.00;;;3.30;99.90;;;;;;4995348;28;20029;-76
2022/12/07 07:22:09;;;;;;;38.90;20.30;;;3.30;99.90;;;;;;4992580;28;20042;-76
2022/12/07 07:24:35;;;;;;;22.00;12.23;;;3.30;99.90;;;;;;4991768;28;20026;-76
2022/12/07 07:27:02;;;;;;;22.02;12.32;;;3.30;99.90;;;;;;4991730;28;20057;-76
2022/12/07 07:29:28;;;;;;;23.00;12.98;;;3.30;99.90;;;;;;4991748;28;20045;-76
2022/12/07 07:31:54;;;;;;;16.65;10.98;;;3.30;99.90;;;;;;4992812;28;20041;-76
2022/12/07 07:34:20;;;;;;;39.42;26.52;;;3.40;99.90;;;;;;4992565;28;20037;-75
2022/12/07 07:36:46;;;;;;;27.40;16.42;;;3.30;99.90;;;;;;4991184;28;20053;-76
2022/12/07 07:39:12;;;;;;;29.50;17.42;;;3.40;99.90;;;;;;4992102;28;20038;-76
2022/12/07 07:41:39;;;;;;;24.88;13.13;;;3.40;99.90;;;;;;4992096;28;20038;-76
2022/12/07 07:44:11;;;;;;;24.80;10.88;;;3.40;99.90;;;;;;4975499;28;20042;-76
2022/12/07 07:46:38;;;;;;;33.30;18.10;;;3.40;99.90;;;;;;4993945;28;20025;-76
2022/12/07 07:49:04;;;;;;;21.83;13.13;;;3.50;99.90;;;;;;5002024;28;20033;-76
2022/12/07 07:51:30;;;;;;;19.77;10.80;;;3.40;99.90;;;;;;5000484;28;20037;-76
2022/12/07 07:53:56;;;;;;;18.05;10.38;;;3.40;99.90;;;;;;5003670;28;20023;-76
2022/12/07 07:56:23;;;;;;;16.08;9.45;;;3.40;99.90;;;;;;5005335;28;20467;-76
2022/12/07 07:58:52;;;;;;;18.83;10.80;;;3.50;99.90;;;;;;5003770;28;20038;-76
2022/12/07 08:01:19;;;;;;;20.15;11.30;;;3.50;99.90;;;;;;5004037;28;20134;-76
2022/12/07 08:03:49;;;;;;;19.13;12.18;;;3.50;99.90;;;;;;5001904;28;20038;-76
2022/12/07 08:06:15;;;;;;;23.00;11.63;;;3.60;99.90;;;;;;5002780;28;20073;-76
2022/12/07 08:08:42;;;;;;;19.90;11.30;;;3.60;99.90;;;;;;5000665;28;20026;-76
2022/12/07 08:11:09;;;;;;;16.00;10.00;;;3.60;99.90;;;;;;5007529;28;20040;-76
2022/12/07 08:13:36;;;;;;;17.13;10.43;;;3.60;99.90;;;;;;4981986;28;20041;-76
2022/12/07 08:16:08;;;;;;;20.33;11.23;;;3.60;99.90;;;;;;5005816;28;20026;-76
2022/12/07 08:18:39;;;;;;;18.65;11.02;;;3.60;99.90;;;;;;5002004;28;20041;-76
2022/12/07 08:21:07;;;;;;;18.58;9.88;;;3.60;99.90;;;;;;4999460;28;20034;-76
2022/12/07 08:23:34;;;;;;;18.17;10.88;;;3.60;99.90;;;;;;4996825;28;20041;-76
2022/12/07 08:26:05;;;;;;;17.92;9.75;;;3.70;99.90;;;;;;4990797;28;20045;-78
2022/12/07 08:28:32;;;;;;;18.00;11.20;;;3.80;99.90;;;;;;5004166;28;20037;-76
2022/12/07 08:31:06;;;;;;;20.45;11.07;;;3.80;98.80;;;;;;5002175;28;20030;-76
2022/12/07 08:33:33;;;;;;;17.35;10.85;;;3.90;92.00;;;;;;5000987;28;20030;-75
2022/12/07 08:36:08;;;;;;;19.88;10.38;;;4.00;83.40;;;;;;5000453;28;20053;-75
2022/12/07 08:38:36;;;;;;;16.02;9.95;;;4.00;76.70;;;;;;5003573;28;20042;-75
2022/12/07 08:41:02;;;;;;;15.93;10.02;;;4.00;76.50;;;;;;5003459;28;20037;-75
2022/12/07 08:43:29;;;;;;;17.60;10.60;;;4.00;76.50;;;;;;5005160;28;20053;-75
2022/12/07 08:46:14;;;;;;;17.25;10.57;;;4.00;77.00;;;;;;5004276;28;20037;-75
2022/12/07 08:48:46;;;;;;;19.05;10.60;;;4.10;76.30;;;;;;5003565;28;20030;-76
2022/12/07 08:51:13;;;;;;;16.08;9.57;;;4.10;78.80;;;;;;4998024;28;20045;-76
2022/12/07 08:53:40;;;;;;;20.05;11.68;;;4.10;75.60;;;;;;5002436;28;20130;-76
2022/12/07 08:56:07;;;;;;;18.88;11.35;;;4.10;75.80;;;;;;4999319;28;20037;-76
2022/12/07 08:58:35;;;;;;;21.08;10.52;;;4.10;73.20;;;;;;4985789;28;20033;-76
2022/12/07 09:01:01;;;;;;;17.98;10.38;;;4.20;70.30;;;;;;5003834;28;20384;-76
2022/12/07 09:03:27;;;;;;;16.80;12.05;;;4.30;67.00;;;;;;5004247;28;20045;-76
2022/12/07 09:05:54;;;;;;;19.00;11.45;;;4.40;67.60;;;;;;5004231;28;20039;-76
2022/12/07 09:08:22;;;;;;;18.55;10.80;;;4.40;61.50;;;;;;5003182;28;20030;-76
2022/12/07 09:10:49;;;;;;;16.40;9.50;;;4.50;52.20;;;;;;5003220;28;20107;-76
2022/12/07 09:13:15;;;;;;;16.10;9.82;;;4.50;47.60;;;;;;5004574;28;20383;-76
2022/12/07 09:15:41;;;;;;;17.35;9.70;;;4.60;40.10;;;;;;5002558;28;20031;-76
2022/12/07 09:18:07;;;;;;;17.58;9.70;;;4.60;33.40;;;;;;5000763;28;20030;-76
2022/12/07 09:20:33;;;;;;;15.90;9.35;;;4.60;28.90;;;;;;4985605;28;20041;-75
2022/12/07 09:23:00;;;;;;;14.25;8.50;;;4.60;24.40;;;;;;5009234;28;20045;-76
2022/12/07 09:25:26;;;;;;;16.25;9.18;;;4.60;23.60;;;;;;5018939;28;20036;-76
2022/12/07 09:27:57;;;;;;;15.52;8.48;;;4.60;19.50;;;;;;5015948;28;20026;-76
2022/12/07 09:30:24;;;;;;;14.93;8.93;;;4.70;14.40;;;;;;5002939;28;20395;-76
2022/12/07 09:32:52;;;;;;;13.73;8.77;;;4.70;11.80;;;;;;5002122;28;20026;-76
2022/12/07 09:35:18;;;;;;;14.00;8.48;;;4.70;9.60;;;;;;5005808;28;20046;-76
2022/12/07 09:37:44;;;;;;;13.90;9.00;;;4.80;9.70;;;;;;5004619;28;20463;-76
2022/12/07 09:40:11;;;;;;;16.52;9.07;;;4.90;9.80;;;;;;5001570;28;20030;-76
2022/12/07 09:42:58;;;;;;;16.95;9.15;;;4.90;10.20;;;;;;4984487;28;20034;-76
2022/12/07 09:45:30;;;;;;;17.35;10.75;;;5.00;10.20;;;;;;5001841;28;20050;-76
2022/12/07 09:47:57;;;;;;;16.77;9.45;;;5.00;13.80;;;;;;5004055;28;20026;-76
2022/12/07 09:50:27;;;;;;;13.02;8.45;;;5.10;7.40;;;;;;5002960;28;20026;-77
2022/12/07 09:53:01;;;;;;;13.27;8.52;;;5.20;4.50;;;;;;5002105;28;20027;-76
2022/12/07 09:55:29;;;;;;;11.35;7.28;;;5.20;1.00;;;;;;5002441;28;20047;-76
2022/12/07 09:57:57;;;;;;;12.25;8.00;;;5.30;1.00;;;;;;5001745;28;20038;-77
2022/12/07 10:00:23;;;;;;;11.73;7.97;;;5.40;1.00;;;;;;5003182;28;20034;-76
2022/12/07 10:02:55;;;;;;;14.57;8.88;;;5.40;1.00;;;;;;5003089;28;20045;-76
2022/12/07 10:05:38;;;;;;;12.50;7.78;;;5.50;1.00;;;;;;5003159;28;20023;-77
2022/12/07 10:08:04;;;;;;;11.50;7.63;;;5.60;1.00;;;;;;4984274;28;20037;-77
2022/12/07 10:10:33;;;;;;;13.10;7.53;;;5.60;1.00;;;;;;4986871;28;20037;-77
2022/12/07 10:13:02;;;;;;;11.13;6.95;;;5.60;1.00;;;;;;5003729;28;20034;-77
2022/12/07 10:16:00;;;;;;;13.38;7.38;;;5.60;1.00;;;;;;5003676;28;20034;-77
2022/12/07 10:18:41;;;;;;;12.60;7.28;;;5.60;1.00;;;;;;4964833;28;20045;-77
2022/12/07 10:21:13;;;;;;;15.63;7.78;;;5.60;1.00;;;;;;5003293;28;20033;-77
2022/12/07 10:23:42;;;;;;;14.73;7.70;;;5.60;1.00;;;;;;5000451;28;20030;-77
2022/12/07 10:26:29;;;;;;;12.93;6.57;;;5.70;1.00;;;;;;5001553;28;20384;-77
2022/12/07 10:28:58;;;;;;;10.23;6.03;;;5.60;1.00;;;;;;5003104;28;20606;-77
2022/12/07 10:31:24;;;;;;;11.82;6.88;;;5.60;1.00;;;;;;4988573;28;20407;-78
2022/12/07 10:33:54;;;;;;;12.25;7.43;;;5.60;1.00;;;;;;5008809;28;20033;-78
2022/12/07 10:36:33;;;;;;;11.35;7.28;;;5.50;1.00;;;;;;5003996;28;20034;-77
2022/12/07 10:39:03;;;;;;;11.20;7.25;;;5.50;1.00;;;;;;5003214;28;20046;-77
2022/12/07 10:41:29;;;;;;;11.80;6.57;;;5.60;1.00;;;;;;4995037;28;20058;-77
2022/12/07 10:43:57;;;;;;;14.70;7.13;;;5.70;1.00;;;;;;5000759;28;20026;-77
2022/12/07 10:47:00;;;;;;;13.90;6.97;;;5.80;1.00;;;;;;5002128;28;20084;-78
2022/12/07 10:49:38;;;;;;;10.57;6.10;;;5.90;1.00;;;;;;5011602;28;20060;-77
2022/12/07 10:52:43;;;;;;;10.38;6.45;;;6.00;1.00;;;;;;5003156;28;20026;-78
2022/12/07 10:55:45;;;;;;;9.45;5.78;;;6.10;1.00;;;;;;5000336;28;20037;-77
2022/12/07 10:58:33;;;;;;;10.82;5.72;;;6.10;1.00;;;;;;4984613;28;20502;-78
2022/12/07 11:01:23;;;;;;;11.63;7.32;;;6.10;1.00;;;;;;5002694;28;20041;-77
2022/12/07 11:04:15;;;;;;;9.63;5.60;;;6.00;1.00;;;;;;5000873;28;20046;-77
2022/12/07 11:07:07;;;;;;;10.27;5.95;;;6.00;1.00;;;;;;5002387;28;20026;-77
2022/12/07 11:09:51;;;;;;;10.63;6.03;;;6.00;1.00;;;;;;4997356;28;20475;-78
2022/12/07 11:12:44;;;;;;;10.18;5.45;;;5.90;1.00;;;;;;4992839;28;20452;-78
2022/12/07 11:15:22;;;;;;;12.43;6.32;;;5.90;1.00;;;;;;4994200;28;20034;-77
2022/12/07 11:18:04;;;;;;;10.48;6.35;;;5.90;1.00;;;;;;4998206;28;20031;-77
2022/12/07 11:20:49;;;;;;;10.82;6.38;;;5.80;1.00;;;;;;5005075;28;20038;-77
2022/12/07 11:23:34;;;;;;;10.00;5.75;;;5.70;1.00;;;;;;4997066;28;20042;-78
2022/12/07 11:26:30;;;;;;;10.32;5.32;;;5.70;1.00;;;;;;5012351;28;20042;-77
2022/12/07 11:29:14;;;;;;;10.75;6.30;;;5.70;1.00;;;;;;4994189;28;20041;-77
2022/12/07 11:31:58;;;;;;;10.48;5.30;;;5.80;1.00;;;;;;5011964;28;20030;-77
2022/12/07 11:34:31;;;;;;;10.85;5.22;;;5.80;1.00;;;;;;4995770;28;20046;-77
2022/12/07 11:36:57;;;;;;;6.55;4.10;;;5.80;1.00;;;;;;5011828;28;20026;-79
2022/12/07 11:39:34;;;;;;;10.95;4.78;;;5.80;1.00;;;;;;5012648;28;20034;-77
2022/12/07 11:42:06;;;;;;;9.27;4.95;;;5.80;1.00;;;;;;4994421;28;20057;-77
2022/12/07 11:44:51;;;;;;;10.13;3.70;;;5.90;1.00;;;;;;4994853;28;20049;-77
2022/12/07 11:47:40;;;;;;;10.48;3.92;;;6.00;1.00;;;;;;4994890;28;20030;-78
2022/12/07 11:50:36;;;;;;;8.63;3.67;;;6.10;1.00;;;;;;5013048;28;20042;-78
2022/12/07 11:53:08;;;;;;;8.13;4.40;;;6.20;1.00;;;;;;5011943;28;20052;-77
2022/12/07 11:56:01;;;;;;;10.10;4.80;;;6.30;1.00;;;;;;5012002;28;20034;-77
2022/12/07 11:58:36;;;;;;;12.18;7.25;;;6.30;1.00;;;;;;5012011;28;20042;-78
2022/12/07 12:01:19;;;;;;;10.48;4.88;;;6.50;1.00;;;;;;5015012;28;20145;-78
2022/12/07 12:04:06;;;;;;;7.75;3.83;;;6.60;1.00;;;;;;4997699;28;20065;-78
2022/12/07 12:06:34;;;;;;;7.15;3.70;;;6.50;1.00;;;;;;5007745;28;20030;-78
2022/12/07 12:09:13;;;;;;;10.68;5.15;;;6.40;1.00;;;;;;5011998;28;20609;-77
2022/12/07 12:12:13;;;;;;;7.35;3.70;;;6.30;1.00;;;;;;4994569;28;20041;-77
2022/12/07 12:14:57;;;;;;;9.50;3.58;;;6.20;1.00;;;;;;5014224;28;20038;-76
2022/12/07 12:17:26;;;;;;;26.20;21.40;;;6.20;1.00;;;;;;5015804;28;20482;-77
2022/12/07 12:20:19;;;;;;;6.60;4.47;;;6.20;1.00;;;;;;5014346;28;20427;-78
2022/12/07 12:23:09;;;;;;;6.95;3.08;;;6.10;1.00;;;;;;5014765;28;20049;-78
2022/12/07 12:25:57;;;;;;;4.45;2.80;;;6.10;1.00;;;;;;5015255;28;20041;-78
2022/12/07 12:28:37;;;;;;;7.57;3.15;;;6.10;1.00;;;;;;5015781;28;20034;-78
2022/12/07 12:31:09;;;;;;;7.00;4.30;;;6.00;1.00;;;;;;5014336;28;20352;-78
2022/12/07 12:33:37;;;;;;;20.30;13.35;;;6.00;1.00;;;;;;5014531;28;20121;-77
2022/12/07 12:36:17;;;;;;;8.75;4.60;;;6.00;1.00;;;;;;5013957;28;20038;-79
2022/12/07 12:38:58;;;;;;;12.35;7.38;;;6.10;1.00;;;;;;5013869;28;20402;-78
2022/12/07 12:41:37;;;;;;;16.42;10.73;;;6.00;1.00;;;;;;5000731;28;20108;-78
2022/12/07 12:44:29;;;;;;;6.63;4.43;;;6.10;1.00;;;;;;4994661;28;20034;-77
2022/12/07 12:46:57;;;;;;;12.80;8.55;;;6.00;1.00;;;;;;4998491;28;20026;-77
2022/12/07 12:49:23;;;;;;;6.22;3.97;;;6.00;1.00;;;;;;5003455;28;20444;-77
2022/12/07 12:52:13;;;;;;;6.60;4.07;;;6.00;1.00;;;;;;5006387;28;20025;-77
2022/12/07 12:54:59;;;;;;;7.77;3.73;;;6.00;1.00;;;;;;5002922;28;20478;-77
2022/12/07 12:57:28;;;;;;;6.63;3.40;;;6.10;1.00;;;;;;5004260;28;20027;-78
2022/12/07 12:59:54;;;;;;;7.03;3.88;;;6.10;1.00;;;;;;4985336;28;20026;-77
2022/12/07 13:02:39;;;;;;;7.05;3.20;;;6.10;1.00;;;;;;4997220;28;20045;-77
2022/12/07 13:05:09;;;;;;;5.32;2.70;;;6.10;1.00;;;;;;4994215;28;20551;-77
2022/12/07 13:07:51;;;;;;;8.98;4.45;;;6.10;1.00;;;;;;4995778;28;20034;-77
2022/12/07 13:10:23;;;;;;;;;;;6.10;1.00;;;;;;4995217;28;20065;-77
2022/12/07 13:13:15;;;;;;;8.93;4.07;;;6.10;1.00;;;;;;4993918;28;19917;-77
2022/12/07 13:15:45;;;;;;;7.65;4.25;;;6.10;1.00;;;;;;4964682;28;20046;-77
2022/12/07 13:18:32;;;;;;;8.13;4.40;;;6.10;1.00;;;;;;4994811;28;20037;-78
2022/12/07 13:21:05;;;;;;;8.07;4.38;;;6.20;1.00;;;;;;4993687;28;20419;-77
2022/12/07 13:23:51;;;;;;;7.18;4.75;;;6.20;1.00;;;;;;4977879;28;20038;-77